createdAt,value
2018-06-24T00:00:06.163Z,101653.93
2018-06-24T00:02:34.544Z,101658.69
2018-06-24T00:05:03.959Z,101647.37
2018-06-24T00:07:32.362Z,101646.87
2018-06-24T00:10:00.787Z,101645.56
2018-06-24T00:12:29.166Z,101649.08
2018-06-24T00:14:57.547Z,101641.64
2018-06-24T00:17:25.944Z,101635.98
2018-06-24T00:19:54.326Z,101637.30
2018-06-24T00:22:22.730Z,101634.65
2018-06-24T00:24:51.870Z,101637.70
2018-06-24T00:27:20.398Z,101630.27
2018-06-24T00:29:48.774Z,101631.61
2018-06-24T00:32:17.176Z,101631.64
2018-06-24T00:34:45.562Z,101632.51
2018-06-24T00:37:13.968Z,101633.81
2018-06-24T00:39:42.351Z,101632.55
2018-06-24T00:42:10.890Z,101629.06
2018-06-24T00:44:39.282Z,101633.41
2018-06-24T00:47:07.686Z,101625.61
2018-06-24T00:49:36.063Z,101634.81
2018-06-24T00:52:04.466Z,101635.28
2018-06-24T00:54:32.845Z,101620.92
2018-06-24T00:57:01.330Z,101621.79
2018-06-24T00:59:40.970Z,101630.53
2018-06-24T01:02:09.378Z,101624.44
2018-06-24T01:04:37.809Z,101626.17
2018-06-24T01:07:06.214Z,101627.52
2018-06-24T01:09:34.670Z,101627.08
2018-06-24T01:12:03.200Z,101625.33
2018-06-24T01:14:31.565Z,101623.59
2018-06-24T01:16:59.953Z,101618.34
2018-06-24T01:19:28.323Z,101621.82
2018-06-24T01:21:56.719Z,101619.25
2018-06-24T01:24:25.229Z,101616.60
2018-06-24T01:29:30.425Z,101623.13
2018-06-24T01:31:58.818Z,101618.78
2018-06-24T01:34:27.187Z,101616.16
2018-06-24T01:36:55.654Z,101620.08
2018-06-24T01:39:24.026Z,101618.34
2018-06-24T01:41:52.391Z,101614.86
2018-06-24T01:44:20.818Z,101608.33
2018-06-24T01:46:49.202Z,101612.25
2018-06-24T01:49:17.590Z,101612.69
2018-06-24T01:51:46.034Z,101612.25
2018-06-24T01:54:18.122Z,101608.33
2018-06-24T01:56:46.481Z,101610.48
2018-06-24T01:59:14.873Z,101614.77
2018-06-24T02:01:43.238Z,101611.22
2018-06-24T02:04:11.622Z,101606.84
2018-06-24T02:06:39.985Z,101607.61
2018-06-24T02:09:11.370Z,101613.64
2018-06-24T02:11:39.924Z,101612.27
2018-06-24T02:14:08.315Z,101605.20
2018-06-24T02:16:37.399Z,101596.91
2018-06-24T02:19:06.313Z,101592.52
2018-06-24T02:21:34.681Z,101588.58
2018-06-24T02:24:03.086Z,101592.05
2018-06-24T02:26:31.466Z,101601.19
2018-06-24T02:28:59.886Z,101585.96
2018-06-24T02:31:28.262Z,101595.50
2018-06-24T02:33:56.835Z,101593.76
2018-06-24T02:36:25.215Z,101605.06
2018-06-24T02:38:53.618Z,101599.81
2018-06-24T02:41:21.986Z,101597.64
2018-06-24T02:43:50.382Z,101597.20
2018-06-24T02:46:18.745Z,101599.81
2018-06-24T02:48:47.182Z,101598.94
2018-06-24T02:51:15.577Z,101601.12
2018-06-24T02:53:44.013Z,101598.07
2018-06-24T02:56:12.366Z,101602.86
2018-06-24T02:58:40.774Z,101602.86
2018-06-24T03:01:09.274Z,101607.67
2018-06-24T03:03:37.645Z,101603.76
2018-06-24T03:06:06.187Z,101606.84
2018-06-24T03:08:34.431Z,101606.41
2018-06-24T03:11:02.859Z,101607.70
2018-06-24T03:13:31.236Z,101602.95
2018-06-24T03:15:59.618Z,101592.95
2018-06-24T03:18:28.058Z,101582.95
2018-06-24T03:20:56.458Z,101593.02
2018-06-24T03:23:24.837Z,101599.58
2018-06-24T03:25:53.272Z,101593.09
2018-06-24T03:28:21.642Z,101597.04
2018-06-24T03:30:50.031Z,101594.47
2018-06-24T03:33:18.471Z,101594.90
2018-06-24T03:35:47.097Z,101597.54
2018-06-24T03:38:15.458Z,101592.35
2018-06-24T03:40:43.837Z,101596.73
2018-06-24T03:43:12.213Z,101599.37
2018-06-24T03:45:40.612Z,101598.94
2018-06-24T03:48:08.977Z,101602.86
2018-06-24T03:50:37.361Z,101595.47
2018-06-24T03:53:06.073Z,101597.64
2018-06-24T03:55:34.553Z,101598.51
2018-06-24T03:58:03.104Z,101601.55
2018-06-24T04:00:46.606Z,101596.33
2018-06-24T04:03:14.971Z,101598.98
2018-06-24T04:05:43.430Z,101599.01
2018-06-24T04:08:11.849Z,101596.39
2018-06-24T04:10:40.274Z,101599.44
2018-06-24T04:13:08.650Z,101591.61
2018-06-24T04:15:37.037Z,101597.27
2018-06-24T04:18:05.630Z,101601.65
2018-06-24T04:20:34.106Z,101590.33
2018-06-24T04:23:02.482Z,101586.85
2018-06-24T04:25:30.874Z,101587.72
2018-06-24T04:27:59.270Z,101588.19
2018-06-24T04:30:27.757Z,101591.77
2018-06-24T04:32:56.154Z,101592.23
2018-06-24T04:35:24.526Z,101597.05
2018-06-24T04:37:52.929Z,101586.20
2018-06-24T04:40:21.291Z,101594.52
2018-06-24T04:42:49.674Z,101594.96
2018-06-24T04:45:18.042Z,101594.55
2018-06-24T04:47:46.502Z,101591.97
2018-06-24T04:50:14.843Z,101593.27
2018-06-24T04:52:43.262Z,101595.91
2018-06-24T04:55:11.632Z,101595.05
2018-06-24T04:57:40.027Z,101596.37
2018-06-24T05:00:08.406Z,101598.14
2018-06-24T05:02:36.798Z,101602.09
2018-06-24T05:05:05.371Z,101593.82
2018-06-24T05:07:33.763Z,101594.28
2018-06-24T05:10:03.585Z,101591.23
2018-06-24T05:12:31.992Z,101596.92
2018-06-24T05:15:00.366Z,101605.28
2018-06-24T05:17:28.758Z,101597.03
2018-06-24T05:19:57.119Z,101606.23
2018-06-24T05:22:25.515Z,101604.51
2018-06-24T05:24:53.878Z,101610.20
2018-06-24T05:27:22.269Z,101602.36
2018-06-24T05:29:50.644Z,101600.26
2018-06-24T05:32:19.041Z,101595.94
2018-06-24T05:34:47.513Z,101602.63
2018-06-24T05:37:15.910Z,101601.80
2018-06-24T05:39:44.357Z,101601.02
2018-06-24T05:42:13.148Z,101606.31
2018-06-24T05:44:43.349Z,101586.20
2018-06-24T05:47:11.742Z,101607.70
2018-06-24T05:49:40.119Z,101603.37
2018-06-24T05:52:08.516Z,101609.97
2018-06-24T05:54:36.878Z,101611.31
2018-06-24T05:57:05.285Z,101608.75
2018-06-24T05:59:33.662Z,101602.66
2018-06-24T06:02:02.038Z,101600.94
2018-06-24T06:04:30.505Z,101597.48
2018-06-24T06:06:59.002Z,101601.42
2018-06-24T06:09:27.396Z,101604.05
2018-06-24T06:11:55.787Z,101596.16
2018-06-24T06:14:24.173Z,101605.34
2018-06-24T06:16:52.579Z,101607.53
2018-06-24T06:19:20.991Z,101608.87
2018-06-24T06:21:49.512Z,101613.70
2018-06-24T06:24:38.781Z,101608.92
2018-06-24T06:27:07.150Z,101614.17
2018-06-24T06:29:35.641Z,101612.44
2018-06-24T06:32:04.017Z,101629.03
2018-06-24T06:34:32.409Z,101617.66
2018-06-24T06:37:01.862Z,101620.72
2018-06-24T06:39:35.217Z,101615.91
2018-06-24T06:42:03.959Z,101613.24
2018-06-24T06:44:32.350Z,101613.21
2018-06-24T06:47:00.720Z,101621.92
2018-06-24T06:49:29.142Z,101614.09
2018-06-24T06:51:57.517Z,101618.47
2018-06-24T06:54:41.689Z,101624.13
2018-06-24T06:57:10.418Z,101623.70
2018-06-24T06:59:39.743Z,101620.66
2018-06-24T07:02:08.118Z,101624.17
2018-06-24T07:04:36.530Z,101622.92
2018-06-24T07:07:04.953Z,101626.00
2018-06-24T07:09:33.337Z,101617.28
2018-06-24T07:12:01.735Z,101626.93
2018-06-24T07:14:30.203Z,101622.16
2018-06-24T07:16:58.574Z,101632.69
2018-06-24T07:19:26.973Z,101625.27
2018-06-24T07:21:55.346Z,101617.45
2018-06-24T07:24:59.210Z,101621.47
2018-06-24T07:27:27.582Z,101623.67
2018-06-24T07:29:55.973Z,101632.01
2018-06-24T07:32:24.457Z,101626.77
2018-06-24T07:34:52.858Z,101616.29
2018-06-24T07:37:21.226Z,101619.78
2018-06-24T07:39:49.850Z,101633.34
2018-06-24T07:42:54.766Z,101633.76
2018-06-24T07:45:23.182Z,101632.45
2018-06-24T07:47:51.557Z,101630.70
2018-06-24T07:50:20.051Z,101633.77
2018-06-24T07:52:48.345Z,101631.16
2018-06-24T07:55:16.735Z,101629.40
2018-06-24T07:57:45.102Z,101635.95
2018-06-24T08:00:13.502Z,101638.98
2018-06-24T08:02:41.874Z,101635.07
2018-06-24T08:05:10.287Z,101640.76
2018-06-24T08:07:38.649Z,101642.92
2018-06-24T08:10:07.066Z,101636.37
2018-06-24T08:12:39.101Z,101632.88
2018-06-24T08:15:07.502Z,101631.14
2018-06-24T08:17:35.878Z,101634.63
2018-06-24T08:20:04.298Z,101628.52
2018-06-24T08:22:32.766Z,101635.08
2018-06-24T08:25:01.143Z,101636.84
2018-06-24T08:27:29.572Z,101635.55
2018-06-24T08:29:57.937Z,101645.62
2018-06-24T08:32:26.329Z,101648.23
2018-06-24T08:34:54.694Z,101648.23
2018-06-24T08:37:23.079Z,101650.42
2018-06-24T08:39:51.478Z,101644.73
2018-06-24T08:42:44.990Z,101652.17
2018-06-24T08:45:17.210Z,101650.42
2018-06-24T08:47:45.602Z,101650.84
2018-06-24T08:50:13.979Z,101647.34
2018-06-24T08:52:42.379Z,101643.91
2018-06-24T08:55:10.813Z,101645.64
2018-06-24T08:57:39.341Z,101649.55
2018-06-24T09:00:08.110Z,101650.41
2018-06-24T09:02:36.526Z,101650.40
2018-06-24T09:05:04.973Z,101651.70
2018-06-24T09:07:33.390Z,101657.34
2018-06-24T09:10:01.777Z,101648.95
2018-06-24T09:12:38.221Z,101649.82
2018-06-24T09:15:06.586Z,101658.94
2018-06-24T09:17:35.042Z,101661.52
2018-06-24T09:20:03.810Z,101663.69
2018-06-24T09:22:32.209Z,101665.85
2018-06-24T09:25:00.598Z,101663.20
2018-06-24T09:27:29.069Z,101662.31
2018-06-24T09:29:57.509Z,101666.70
2018-06-24T09:32:25.906Z,101669.38
2018-06-24T09:34:54.273Z,101667.26
2018-06-24T09:37:22.663Z,101674.31
2018-06-24T09:39:51.040Z,101676.52
2018-06-24T09:42:19.427Z,101676.97
2018-06-24T09:44:47.786Z,101669.10
2018-06-24T09:47:16.182Z,101674.81
2018-06-24T09:49:44.549Z,101669.98
2018-06-24T09:52:12.941Z,101667.33
2018-06-24T09:54:41.321Z,101659.88
2018-06-24T09:57:09.730Z,101670.38
2018-06-24T09:59:38.100Z,101663.36
2018-06-24T10:02:06.722Z,101673.84
2018-06-24T10:04:35.209Z,101654.06
2018-06-24T10:07:03.569Z,101667.14
2018-06-24T10:09:31.954Z,101654.84
2018-06-24T10:12:00.342Z,101657.00
2018-06-24T10:14:28.730Z,101655.60
2018-06-24T10:16:57.093Z,101666.05
2018-06-24T10:19:25.496Z,101663.77
2018-06-24T10:21:53.909Z,101663.30
2018-06-24T10:24:22.314Z,101661.39
2018-06-24T10:26:50.677Z,101657.75
2018-06-24T10:29:19.080Z,101663.31
2018-06-24T10:31:47.454Z,101658.83
2018-06-24T10:34:15.839Z,101657.02
2018-06-24T10:36:44.204Z,101656.52
2018-06-24T10:39:12.935Z,101654.33
2018-06-24T10:41:41.302Z,101652.56
2018-06-24T10:44:09.689Z,101652.65
2018-06-24T10:46:38.078Z,101660.14
2018-06-24T10:49:06.474Z,101653.19
2018-06-24T10:51:34.842Z,101662.45
2018-06-24T10:54:03.237Z,101662.94
2018-06-24T10:56:31.610Z,101655.53
2018-06-24T10:59:00.034Z,101662.11
2018-06-24T11:01:28.397Z,101661.17
2018-06-24T11:03:56.793Z,101659.77
2018-06-24T11:06:25.152Z,101664.51
2018-06-24T11:08:53.544Z,101664.80
2018-06-24T11:11:22.042Z,101662.06
2018-06-24T11:13:50.438Z,101672.11
2018-06-24T11:16:18.900Z,101665.50
2018-06-24T11:18:47.303Z,101665.37
2018-06-24T11:21:15.670Z,101665.31
2018-06-24T11:23:44.120Z,101667.91
2018-06-24T11:26:12.516Z,101665.22
2018-06-24T11:28:40.873Z,101662.06
2018-06-24T11:31:09.600Z,101653.13
2018-06-24T11:33:37.902Z,101657.31
2018-06-24T11:36:06.385Z,101657.96
2018-06-24T11:38:34.758Z,101649.98
2018-06-24T11:41:03.197Z,101659.73
2018-06-24T11:43:31.562Z,101652.80
2018-06-24T11:46:00.094Z,101658.24
2018-06-24T11:48:28.468Z,101656.57
2018-06-24T11:50:56.858Z,101659.20
2018-06-24T11:53:25.246Z,101650.89
2018-06-24T11:55:53.921Z,101654.15
2018-06-24T11:58:22.291Z,101663.13
2018-06-24T12:00:50.699Z,101667.70
2018-06-24T12:03:19.069Z,101667.47
2018-06-24T12:05:47.742Z,101669.00
2018-06-24T12:08:16.133Z,101666.03
2018-06-24T12:10:44.593Z,101666.48
2018-06-24T12:13:12.950Z,101667.34
2018-06-24T12:15:41.330Z,101660.75
2018-06-24T12:18:09.712Z,101656.77
2018-06-24T12:20:38.134Z,101660.23
2018-06-24T12:23:06.501Z,101658.87
2018-06-24T12:25:34.950Z,101658.41
2018-06-24T12:28:03.325Z,101654.05
2018-06-24T12:30:31.710Z,101658.50
2018-06-24T12:33:00.106Z,101659.03
2018-06-24T12:35:28.486Z,101658.20
2018-06-24T12:37:56.861Z,101657.37
2018-06-24T12:40:31.373Z,101664.52
2018-06-24T12:43:00.807Z,101662.88
2018-06-24T12:45:29.229Z,101660.45
2018-06-24T12:47:57.631Z,101654.91
2018-06-24T12:50:25.993Z,101651.92
2018-06-24T12:52:54.445Z,101654.56
2018-06-24T12:55:22.768Z,101658.53
2018-06-24T12:57:51.158Z,101650.63
2018-06-24T13:00:20.070Z,101645.77
2018-06-24T13:02:47.937Z,101646.13
2018-06-24T13:05:16.302Z,101642.98
2018-06-24T13:07:44.909Z,101636.26
2018-06-24T13:10:13.310Z,101638.28
2018-06-24T13:12:41.705Z,101631.08
2018-06-24T13:15:10.082Z,101631.82
2018-06-24T13:17:38.471Z,101632.61
2018-06-24T13:20:06.863Z,101630.88
2018-06-24T13:22:35.255Z,101629.64
2018-06-24T13:25:03.637Z,101638.90
2018-06-24T13:27:32.037Z,101634.61
2018-06-24T13:30:00.413Z,101632.09
2018-06-24T13:32:28.813Z,101627.30
2018-06-24T13:34:57.184Z,101632.57
2018-06-24T13:37:25.600Z,101634.30
2018-06-24T13:39:53.974Z,101633.78
2018-06-24T13:42:22.440Z,101638.14
2018-06-24T13:44:50.768Z,101638.97
2018-06-24T13:47:19.157Z,101632.31
2018-06-24T13:49:47.542Z,101636.19
2018-06-24T13:52:15.953Z,101627.79
2018-06-24T13:54:44.371Z,101630.80
2018-06-24T13:57:12.758Z,101626.30
2018-06-24T13:59:41.126Z,101631.94
2018-06-24T14:02:09.554Z,101635.03
2018-06-24T14:04:37.935Z,101628.94
2018-06-24T14:07:06.318Z,101635.57
2018-06-24T14:09:34.717Z,101635.12
2018-06-24T14:12:03.110Z,101634.21
2018-06-24T14:14:31.498Z,101638.53
2018-06-24T14:16:59.876Z,101645.44
2018-06-24T14:19:28.267Z,101633.48
2018-06-24T14:21:56.649Z,101636.95
2018-06-24T14:24:25.366Z,101633.73
2018-06-24T14:26:53.854Z,101636.30
2018-06-24T14:29:22.250Z,101638.94
2018-06-24T14:31:50.621Z,101640.77
2018-06-24T14:34:19.002Z,101644.00
2018-06-24T14:36:47.445Z,101645.44
2018-06-24T14:39:16.093Z,101640.37
2018-06-24T14:41:44.462Z,101641.83
2018-06-24T14:44:12.867Z,101639.31
2018-06-24T14:46:41.250Z,101644.69
2018-06-24T14:49:09.637Z,101636.48
2018-06-24T14:51:38.007Z,101640.89
2018-06-24T14:54:06.400Z,101647.53
2018-06-24T14:56:34.774Z,101652.41
2018-06-24T14:59:03.179Z,101643.26
2018-06-24T15:01:31.815Z,101641.97
2018-06-24T15:04:00.137Z,101642.90
2018-06-24T15:06:28.612Z,101639.87
2018-06-24T15:08:57.001Z,101635.53
2018-06-24T15:11:25.438Z,101638.19
2018-06-24T15:13:54.226Z,101640.42
2018-06-24T15:16:22.585Z,101640.02
2018-06-24T15:18:50.977Z,101641.78
2018-06-24T15:21:19.347Z,101644.86
2018-06-24T15:23:47.734Z,101640.47
2018-06-24T15:26:16.507Z,101640.84
2018-06-24T15:28:44.919Z,101643.00
2018-06-24T15:31:13.294Z,101642.95
2018-06-24T15:33:41.679Z,101640.73
2018-06-24T15:36:10.314Z,101637.22
2018-06-24T15:38:38.677Z,101635.03
2018-06-24T15:41:07.077Z,101635.90
2018-06-24T15:43:35.438Z,101632.34
2018-06-24T15:46:03.834Z,101628.81
2018-06-24T15:48:32.198Z,101622.63
2018-06-24T15:51:00.582Z,101622.98
2018-06-24T15:53:28.942Z,101619.45
2018-06-24T15:55:57.350Z,101623.36
2018-06-24T15:58:25.709Z,101618.47
2018-06-24T16:00:54.099Z,101616.22
2018-06-24T16:03:22.474Z,101621.44
2018-06-24T16:05:50.862Z,101621.44
2018-06-24T16:08:19.233Z,101627.16
2018-06-24T16:10:47.702Z,101628.48
2018-06-24T16:13:16.066Z,101624.08
2018-06-24T16:15:44.462Z,101624.08
2018-06-24T16:18:12.842Z,101621.44
2018-06-24T16:20:41.278Z,101627.58
2018-06-24T16:23:09.633Z,101624.08
2018-06-24T16:25:38.026Z,101621.03
2018-06-24T16:28:06.985Z,101620.16
2018-06-24T16:30:35.422Z,101621.94
2018-06-24T16:33:03.790Z,101619.78
2018-06-24T16:35:32.348Z,101616.73
2018-06-24T16:38:00.719Z,101619.38
2018-06-24T16:40:29.118Z,101619.86
2018-06-24T16:42:57.490Z,101625.58
2018-06-24T16:45:25.912Z,101619.89
2018-06-24T16:47:54.442Z,101624.74
2018-06-24T16:50:22.801Z,101630.48
2018-06-24T16:52:51.276Z,101629.23
2018-06-24T16:55:19.637Z,101629.27
2018-06-24T16:57:48.021Z,101630.67
2018-06-24T17:00:16.397Z,101632.03
2018-06-24T17:02:44.829Z,101640.42
2018-06-24T17:05:13.191Z,101632.58
2018-06-24T17:07:41.579Z,101633.94
2018-06-24T17:10:09.944Z,101634.84
2018-06-24T17:12:38.434Z,101627.44
2018-06-24T17:15:06.799Z,101634.92
2018-06-24T17:17:35.187Z,101634.06
2018-06-24T17:20:03.578Z,101633.64
2018-06-24T17:22:31.965Z,101635.37
2018-06-24T17:25:00.411Z,101632.73
2018-06-24T17:27:28.793Z,101632.73
2018-06-24T17:29:57.153Z,101633.20
2018-06-24T17:32:25.554Z,101635.37
2018-06-24T17:34:53.926Z,101635.37
2018-06-24T17:37:22.310Z,101631.88
2018-06-24T17:39:50.682Z,101634.53
2018-06-24T17:42:19.077Z,101635.41
2018-06-24T17:44:47.434Z,101630.17
2018-06-24T17:47:15.834Z,101639.80
2018-06-24T17:49:44.212Z,101636.33
2018-06-24T17:52:12.601Z,101635.91
2018-06-24T17:54:40.969Z,101629.78
2018-06-24T17:57:09.361Z,101633.31
2018-06-24T17:59:37.733Z,101632.02
2018-06-24T18:02:06.137Z,101630.28
2018-06-24T18:04:34.582Z,101632.91
2018-06-24T18:07:02.946Z,101632.48
2018-06-24T18:09:31.342Z,101637.29
2018-06-24T18:11:59.741Z,101631.19
2018-06-24T18:14:28.145Z,101633.83
2018-06-24T18:16:56.519Z,101632.94
2018-06-24T18:19:24.944Z,101629.43
2018-06-24T18:21:53.309Z,101631.18
2018-06-24T18:24:21.723Z,101626.39
2018-06-24T18:26:50.199Z,101626.81
2018-06-24T18:29:18.642Z,101625.09
2018-06-24T18:31:47.011Z,101634.22
2018-06-24T18:34:15.426Z,101637.30
2018-06-24T18:36:43.934Z,101635.09
2018-06-24T18:39:12.325Z,101631.62
2018-06-24T18:41:40.737Z,101641.22
2018-06-24T18:44:09.103Z,101634.67
2018-06-24T18:46:37.650Z,101632.04
2018-06-24T18:49:06.052Z,101628.98
2018-06-24T18:51:34.451Z,101629.86
2018-06-24T18:54:02.849Z,101635.98
2018-06-24T18:56:31.266Z,101637.28
2018-06-24T18:58:59.658Z,101639.93
2018-06-24T19:01:28.014Z,101643.43
2018-06-24T19:03:56.402Z,101641.69
2018-06-24T19:06:24.765Z,101644.28
2018-06-24T19:08:53.159Z,101646.02
2018-06-24T19:11:21.608Z,101642.52
2018-06-24T19:13:50.061Z,101642.94
2018-06-24T19:16:18.422Z,101650.33
2018-06-24T19:18:46.831Z,101652.92
2018-06-24T19:21:15.369Z,101655.50
2018-06-24T19:23:43.755Z,101655.88
2018-06-24T19:26:12.134Z,101654.53
2018-06-24T19:28:40.499Z,101664.08
2018-06-24T19:31:08.886Z,101659.71
2018-06-24T19:33:37.257Z,101664.47
2018-06-24T19:36:05.642Z,101667.91
2018-06-24T19:38:34.015Z,101670.93
2018-06-24T19:41:02.402Z,101673.53
2018-06-24T19:43:30.765Z,101673.52
2018-06-24T19:45:59.170Z,101684.87
2018-06-24T19:48:27.713Z,101680.05
2018-06-24T19:50:56.095Z,101677.89
2018-06-24T19:53:24.470Z,101677.47
2018-06-24T19:55:52.853Z,101673.53
2018-06-24T19:58:21.221Z,101673.09
2018-06-24T20:00:49.682Z,101680.08
2018-06-24T20:03:18.114Z,101683.58
2018-06-24T20:05:46.466Z,101679.21
2018-06-24T20:08:14.828Z,101681.83
2018-06-24T20:10:43.241Z,101677.02
2018-06-24T20:13:11.674Z,101684.87
2018-06-24T20:15:40.059Z,101692.33
2018-06-24T20:18:08.428Z,101694.95
2018-06-24T20:20:36.873Z,101698.84
2018-06-24T20:23:05.405Z,101696.23
2018-06-24T20:25:33.797Z,101703.20
2018-06-24T20:28:02.182Z,101704.09
2018-06-24T20:30:30.591Z,101702.34
2018-06-24T20:32:58.954Z,101705.39
2018-06-24T20:35:27.366Z,101702.77
2018-06-24T20:37:55.727Z,101704.03
2018-06-24T20:40:24.089Z,101708.37
2018-06-24T20:42:52.487Z,101703.55
2018-06-24T20:45:20.874Z,101708.80
2018-06-24T20:47:49.693Z,101715.77
2018-06-24T20:50:18.105Z,101712.66
2018-06-24T20:52:46.466Z,101715.27
2018-06-24T20:55:14.835Z,101709.98
2018-06-24T20:57:43.221Z,101707.33
2018-06-24T21:00:11.599Z,101705.11
2018-06-24T21:02:40.007Z,101706.36
2018-06-24T21:05:08.401Z,101713.27
2018-06-24T21:07:36.795Z,101707.05
2018-06-24T21:10:05.193Z,101713.09
2018-06-24T21:12:33.602Z,101708.23
2018-06-24T21:15:02.151Z,101710.73
2018-06-24T21:17:30.757Z,101712.40
2018-06-24T21:19:59.165Z,101710.57
2018-06-24T21:22:27.550Z,101709.65
2018-06-24T21:24:55.913Z,101710.90
2018-06-24T21:27:24.311Z,101713.02
2018-06-24T21:29:52.679Z,101719.03
2018-06-24T21:32:21.068Z,101722.91
2018-06-24T21:34:49.442Z,101721.52
2018-06-24T21:37:17.825Z,101719.24
2018-06-24T21:39:46.185Z,101718.78
2018-06-24T21:42:14.577Z,101717.38
2018-06-24T21:44:42.939Z,101723.00
2018-06-24T21:47:12.095Z,101722.49
2018-06-24T21:49:40.464Z,101721.59
2018-06-24T21:52:08.853Z,101724.16
2018-06-24T21:54:37.221Z,101721.92
2018-06-24T21:57:05.625Z,101728.81
2018-06-24T21:59:33.989Z,101736.14
2018-06-24T22:02:03.946Z,101736.94
2018-06-24T22:04:32.333Z,101738.61
2018-06-24T22:07:00.709Z,101739.00
2018-06-24T22:09:29.106Z,101738.09
2018-06-24T22:11:57.516Z,101744.55
2018-06-24T22:14:25.905Z,101741.89
2018-06-24T22:16:54.279Z,101737.90
2018-06-24T22:19:22.674Z,101746.55
2018-06-24T22:21:51.049Z,101745.18
2018-06-24T22:24:19.441Z,101743.83
2018-06-24T22:26:47.931Z,101741.18
2018-06-24T22:29:16.326Z,101745.48
2018-06-24T22:31:44.699Z,101742.80
2018-06-24T22:34:13.106Z,101747.10
2018-06-24T22:36:41.478Z,101744.84
2018-06-24T22:39:11.167Z,101743.50
2018-06-24T22:41:39.538Z,101742.58
2018-06-24T22:44:07.934Z,101741.67
2018-06-24T22:46:36.329Z,101742.06
2018-06-24T22:49:04.994Z,101741.11
2018-06-24T22:51:33.395Z,101750.23
2018-06-24T22:54:01.782Z,101754.09
2018-06-24T22:56:30.154Z,101751.87
2018-06-24T22:59:10.633Z,101752.27
2018-06-24T23:01:39.007Z,101749.63
2018-06-24T23:04:07.418Z,101746.53
2018-06-24T23:06:35.794Z,101751.70
2018-06-24T23:09:06.018Z,101751.66
2018-06-24T23:11:34.425Z,101759.05
2018-06-24T23:14:02.814Z,101761.17
2018-06-24T23:16:31.173Z,101759.34
2018-06-24T23:18:59.557Z,101757.12
2018-06-24T23:21:27.957Z,101756.63
2018-06-24T23:23:56.369Z,101760.89
2018-06-24T23:26:24.734Z,101763.02
2018-06-24T23:28:53.146Z,101760.78
2018-06-24T23:31:21.506Z,101755.52
2018-06-24T23:33:49.874Z,101765.03
2018-06-24T23:36:18.265Z,101759.34
2018-06-24T23:38:46.634Z,101758.91
2018-06-24T23:41:15.026Z,101761.89
2018-06-24T23:43:43.385Z,101759.28
2018-06-24T23:46:11.809Z,101758.80
2018-06-24T23:48:40.174Z,101757.50
2018-06-24T23:51:08.567Z,101762.27
2018-06-24T23:53:36.937Z,101768.71
2018-06-24T23:56:05.493Z,101767.84
2018-06-24T23:58:33.857Z,101772.61
